Time;durP1;ratioP1;P1;durP2;ratioP2;P2;SDS_P1;SDS_P2;PMS_P1;PMS_P2;Temp;Humidity;BMP_temperature;BMP_pressure;BME280_temperature;BME280_humidity;BME280_pressure;Samples;Min_cycle;Max_cycle;Signal;HPM_P1;HPM_P2
2022/06/01 00:00:15;;;;;;;4.53;3.00;;;13.60;99.90;;;;;;4968680;28;20207;-81
2022/06/01 00:03:00;;;;;;;3.93;2.63;;;13.60;99.90;;;;;;4957221;28;20194;-80
2022/06/01 00:05:45;;;;;;;3.27;2.37;;;13.50;99.90;;;;;;4956271;28;20729;-81
2022/06/01 00:08:29;;;;;;;3.87;2.67;;;13.50;99.90;;;;;;4949284;28;20253;-81
2022/06/01 00:11:14;;;;;;;4.33;3.00;;;13.50;99.90;;;;;;4953615;28;20234;-80
2022/06/01 00:13:58;;;;;;;4.03;2.70;;;13.40;99.90;;;;;;4968113;28;20198;-82
2022/06/01 00:16:43;;;;;;;3.50;3.20;;;13.30;99.90;;;;;;4950998;28;20248;-81
2022/06/01 00:19:27;;;;;;;4.90;3.10;;;13.30;99.90;;;;;;4950878;28;20205;-81
2022/06/01 00:22:12;;;;;;;5.53;3.10;;;13.20;99.90;;;;;;4964707;28;20214;-81
2022/06/01 00:24:57;;;;;;;5.20;3.47;;;13.10;99.90;;;;;;4947392;28;20212;-81
2022/06/01 00:27:42;;;;;;;6.10;3.17;;;13.10;99.90;;;;;;4949706;28;20211;-81
2022/06/01 00:30:26;;;;;;;4.63;3.03;;;13.10;99.90;;;;;;4957985;28;20658;-81
2022/06/01 00:33:11;;;;;;;5.53;3.60;;;13.10;99.90;;;;;;4971402;28;20306;-81
2022/06/01 00:35:55;;;;;;;4.37;3.97;;;13.00;99.90;;;;;;4950193;28;20182;-81
2022/06/01 00:38:40;;;;;;;7.87;4.13;;;13.00;99.90;;;;;;4948656;28;20285;-81
2022/06/01 00:41:24;;;;;;;4.10;3.80;;;13.00;99.90;;;;;;4959315;28;20222;-81
2022/06/01 00:44:09;;;;;;;6.63;4.13;;;13.00;99.90;;;;;;4952325;28;20681;-80
2022/06/01 00:46:53;;;;;;;7.00;4.33;;;13.00;99.90;;;;;;4943176;28;20198;-81
2022/06/01 00:49:41;;;;;;;6.37;4.47;;;12.90;99.90;;;;;;4948663;28;20219;-81
2022/06/01 00:52:36;;;;;;;4.43;4.03;;;13.00;99.90;;;;;;4959921;28;20222;-81
2022/06/01 00:55:28;;;;;;;5.63;4.40;;;13.00;99.90;;;;;;4960261;28;20561;-81
2022/06/01 00:58:30;;;;;;;6.13;5.17;;;13.00;99.90;;;;;;4957977;28;20246;-80
2022/06/01 01:01:18;;;;;;;4.80;4.30;;;13.00;99.90;;;;;;4953634;28;20282;-80
2022/06/01 01:04:04;;;;;;;6.80;4.27;;;13.00;99.90;;;;;;4964458;28;20327;-80
2022/06/01 01:06:49;;;;;;;7.77;4.57;;;13.00;99.90;;;;;;4949191;28;20328;-80
2022/06/01 01:09:37;;;;;;;7.27;4.83;;;13.00;99.90;;;;;;4961683;28;20210;-80
2022/06/01 01:12:22;;;;;;;6.17;4.90;;;13.00;99.90;;;;;;4951065;28;20260;-80
2022/06/01 01:15:07;;;;;;;6.77;5.70;;;13.00;99.90;;;;;;4959173;28;20627;-81
2022/06/01 01:17:54;;;;;;;10.43;5.30;;;12.90;99.90;;;;;;4961153;28;20230;-81
2022/06/01 01:21:04;;;;;;;5.87;5.30;;;12.90;99.90;;;;;;4956614;28;20221;-81
2022/06/01 01:23:52;;;;;;;6.43;5.27;;;12.90;99.90;;;;;;4937021;28;20214;-81
2022/06/01 01:26:37;;;;;;;6.63;5.63;;;12.80;99.90;;;;;;4952500;28;20194;-80
2022/06/01 01:29:38;;;;;;;6.10;5.50;;;12.80;99.90;;;;;;4955135;28;20217;-79
2022/06/01 01:32:23;;;;;;;6.13;5.53;;;12.80;99.90;;;;;;4952213;28;20284;-79
2022/06/01 01:35:07;;;;;;;8.67;5.80;;;12.80;99.90;;;;;;4957926;28;20210;-80
2022/06/01 01:37:52;;;;;;;6.57;5.57;;;12.80;99.90;;;;;;4950679;28;20206;-80
2022/06/01 01:40:36;;;;;;;8.80;5.70;;;12.80;99.90;;;;;;4948338;28;20225;-81
2022/06/01 01:43:21;;;;;;;6.70;5.77;;;12.80;99.90;;;;;;4962650;28;20245;-81
2022/06/01 01:46:06;;;;;;;8.73;5.87;;;12.70;99.90;;;;;;4958475;28;20243;-81
2022/06/01 01:48:50;;;;;;;10.13;5.90;;;12.70;99.90;;;;;;4951772;28;20222;-81
2022/06/01 01:51:34;;;;;;;8.13;6.20;;;12.70;99.90;;;;;;4964640;28;20221;-81
2022/06/01 01:54:31;;;;;;;6.77;6.10;;;12.60;99.90;;;;;;4956638;28;20333;-81
2022/06/01 01:57:34;;;;;;;9.97;6.40;;;12.60;99.90;;;;;;4949562;28;20261;-81
2022/06/01 02:00:24;;;;;;;7.17;6.50;;;12.60;99.90;;;;;;4951856;28;20214;-81
2022/06/01 02:03:30;;;;;;;8.27;7.37;;;12.50;99.90;;;;;;4963856;28;20223;-81
2022/06/01 02:06:29;;;;;;;8.83;6.80;;;12.50;99.90;;;;;;4951285;28;20696;-80
2022/06/01 02:09:14;;;;;;;9.50;6.70;;;12.40;99.90;;;;;;4954126;28;20820;-80
2022/06/01 02:15:03;;;;;;;7.93;7.13;;;12.40;99.90;;;;;;4953934;28;20241;-81
2022/06/01 02:17:51;;;;;;;7.93;7.13;;;12.30;99.90;;;;;;4955916;28;20217;-80
2022/06/01 02:20:46;;;;;;;11.30;8.67;;;12.30;99.90;;;;;;4954713;28;20194;-81
2022/06/01 02:23:31;;;;;;;11.07;8.00;;;12.30;99.90;;;;;;4958412;28;20278;-81
2022/06/01 02:26:18;;;;;;;10.00;8.57;;;12.30;99.90;;;;;;4960335;28;20184;-80
2022/06/01 02:29:16;;;;;;;11.20;8.57;;;12.30;99.90;;;;;;4941328;28;20218;-81
2022/06/01 02:32:03;;;;;;;9.80;8.80;;;12.30;99.90;;;;;;4945407;28;20298;-81
2022/06/01 02:34:48;;;;;;;10.17;8.60;;;12.30;99.90;;;;;;4956632;28;20202;-81
2022/06/01 02:37:37;;;;;;;12.10;8.83;;;12.30;99.90;;;;;;4946477;28;20187;-81
2022/06/01 02:40:23;;;;;;;10.07;8.07;;;12.30;99.90;;;;;;4953262;28;20250;-81
2022/06/01 02:43:08;;;;;;;13.17;9.67;;;12.20;99.90;;;;;;4967153;28;20557;-81
2022/06/01 02:45:52;;;;;;;12.30;9.60;;;12.20;99.90;;;;;;4943289;28;20274;-81
2022/06/01 02:48:43;;;;;;;10.47;9.37;;;12.20;99.90;;;;;;4962928;28;20214;-81
2022/06/01 02:51:27;;;;;;;12.20;10.40;;;12.20;99.90;;;;;;4959184;28;20222;-81
2022/06/01 02:54:12;;;;;;;11.13;9.70;;;12.20;99.90;;;;;;4957020;28;20246;-81
2022/06/01 02:56:56;;;;;;;11.07;9.87;;;12.20;99.90;;;;;;4949736;28;20249;-81
2022/06/01 03:00:08;;;;;;;11.93;10.07;;;12.10;99.90;;;;;;4951897;28;20251;-81
2022/06/01 03:10:54;;;;;;;13.10;10.13;;;12.10;99.90;;;;;;4879374;29;20246;-82
2022/06/01 03:13:39;;;;;;;11.10;9.90;;;12.00;99.90;;;;;;4896506;28;20669;-81
2022/06/01 03:16:24;;;;;;;13.57;11.27;;;12.00;99.90;;;;;;4963349;28;20221;-81
2022/06/01 03:19:08;;;;;;;11.97;10.70;;;12.00;99.90;;;;;;4967322;28;20249;-81
2022/06/01 03:21:53;;;;;;;12.97;10.63;;;12.00;99.90;;;;;;4957664;28;20347;-81
2022/06/01 03:24:37;;;;;;;13.13;10.80;;;12.00;99.90;;;;;;4963913;28;20676;-81
2022/06/01 03:27:21;;;;;;;14.20;11.53;;;12.00;99.90;;;;;;4944564;28;20222;-81
2022/06/01 03:30:10;;;;;;;13.93;11.67;;;12.00;99.90;;;;;;4966130;28;20270;-81
2022/06/01 03:32:55;;;;;;;12.50;11.10;;;12.00;99.90;;;;;;4954199;28;20223;-81
2022/06/01 03:35:40;;;;;;;13.00;11.70;;;11.90;99.90;;;;;;4952054;28;20203;-81
2022/06/01 03:38:24;;;;;;;12.97;10.97;;;12.00;99.90;;;;;;4956475;28;20190;-81
2022/06/01 03:41:08;;;;;;;14.83;11.70;;;11.90;99.90;;;;;;4952331;28;20286;-82
2022/06/01 03:47:04;;;;;;;15.37;11.57;;;11.90;99.90;;;;;;4956312;28;20562;-82
2022/06/01 03:49:48;;;;;;;13.50;11.50;;;11.90;99.90;;;;;;4945010;28;20234;-81
2022/06/01 03:52:33;;;;;;;12.87;10.67;;;11.90;99.90;;;;;;4948143;28;20230;-81
2022/06/01 03:55:17;;;;;;;13.40;12.00;;;11.90;99.90;;;;;;4956737;28;20277;-82
2022/06/01 03:58:03;;;;;;;12.00;10.77;;;11.90;99.90;;;;;;4952388;28;20254;-82
2022/06/01 04:00:48;;;;;;;11.40;10.20;;;11.90;99.90;;;;;;4953958;28;20265;-81
2022/06/01 04:03:32;;;;;;;11.80;10.53;;;11.90;99.90;;;;;;4971243;28;20194;-82
2022/06/01 04:06:16;;;;;;;11.87;10.67;;;11.80;99.90;;;;;;4969932;28;20322;-83
2022/06/01 04:09:01;;;;;;;10.90;9.80;;;11.80;99.90;;;;;;4965613;28;20223;-82
2022/06/01 04:11:46;;;;;;;14.70;10.47;;;11.80;99.90;;;;;;4958883;28;20215;-82
2022/06/01 04:14:30;;;;;;;13.27;10.37;;;11.80;99.90;;;;;;4969130;28;20185;-83
2022/06/01 04:17:14;;;;;;;15.43;11.00;;;11.80;99.90;;;;;;4947426;28;20278;-83
2022/06/01 04:19:59;;;;;;;12.33;10.20;;;11.80;99.90;;;;;;4950336;28;20276;-83
2022/06/01 04:22:44;;;;;;;11.43;10.23;;;11.80;99.90;;;;;;4969520;28;20262;-84
2022/06/01 04:25:33;;;;;;;11.20;10.10;;;11.80;99.90;;;;;;4948543;28;20717;-83
2022/06/01 04:28:17;;;;;;;11.70;10.20;;;11.80;99.90;;;;;;4945757;28;20214;-83
2022/06/01 04:31:01;;;;;;;11.77;10.53;;;11.80;99.90;;;;;;4958196;28;20776;-84
2022/06/01 04:33:46;;;;;;;12.93;11.30;;;11.80;99.90;;;;;;4958089;28;20205;-83
2022/06/01 04:36:31;;;;;;;14.40;10.40;;;11.80;99.90;;;;;;4964948;28;20218;-83
2022/06/01 04:39:15;;;;;;;12.97;11.10;;;11.80;99.90;;;;;;4951888;28;20202;-83
2022/06/01 04:41:59;;;;;;;12.30;10.53;;;11.70;99.90;;;;;;4952377;28;20217;-84
2022/06/01 04:44:43;;;;;;;12.23;10.17;;;11.70;99.90;;;;;;4954770;28;20242;-83
2022/06/01 04:47:27;;;;;;;13.23;10.80;;;11.70;99.90;;;;;;4948615;28;20226;-83
2022/06/01 04:50:11;;;;;;;11.83;10.63;;;11.70;99.90;;;;;;4947189;28;20205;-84
2022/06/01 04:52:56;;;;;;;12.70;11.40;;;11.70;99.90;;;;;;4945221;28;20182;-84
2022/06/01 04:55:42;;;;;;;11.97;10.57;;;11.70;99.90;;;;;;4954524;28;20198;-84
2022/06/01 04:58:37;;;;;;;12.60;10.53;;;11.70;99.90;;;;;;4959427;28;20249;-84
2022/06/01 05:01:30;;;;;;;12.27;10.30;;;11.70;99.90;;;;;;4962346;28;20420;-83
2022/06/01 05:04:20;;;;;;;11.70;10.50;;;11.70;99.90;;;;;;4970852;28;20258;-83
2022/06/01 05:07:04;;;;;;;12.20;10.90;;;11.70;99.90;;;;;;4951215;28;20194;-84
2022/06/01 05:10:43;;;;;;;15.53;12.10;;;11.70;99.90;;;;;;4953597;28;20308;-84
2022/06/01 05:13:38;;;;;;;16.50;13.03;;;11.70;99.90;;;;;;4947496;28;20193;-84
2022/06/01 05:16:27;;;;;;;15.33;13.33;;;11.80;99.90;;;;;;4949057;28;20221;-78
2022/06/01 05:19:44;;;;;;;16.17;12.47;;;11.80;99.90;;;;;;4950688;28;20226;-84
2022/06/01 05:22:51;;;;;;;;;;;;;;;;;;;;;
2022/06/01 05:25:39;;;;;;;13.73;12.23;;;11.90;99.90;;;;;;4959204;28;20290;-82
2022/06/01 05:28:27;;;;;;;13.43;12.10;;;12.00;99.90;;;;;;4954774;28;20293;-82
2022/06/01 05:31:13;;;;;;;14.47;12.77;;;12.00;99.90;;;;;;4959716;28;20211;-83
2022/06/01 05:34:01;;;;;;;15.27;13.20;;;12.00;99.90;;;;;;4946404;28;20226;-78
2022/06/01 05:37:02;;;;;;;15.20;13.03;;;12.10;99.90;;;;;;4945139;28;20194;-80
2022/06/01 05:39:47;;;;;;;13.30;11.90;;;12.10;99.90;;;;;;4962128;28;20204;-80
2022/06/01 05:42:32;;;;;;;14.23;12.73;;;12.10;99.90;;;;;;4959556;28;20294;-83
2022/06/01 05:45:20;;;;;;;14.60;12.97;;;12.20;99.90;;;;;;4960218;28;20201;-80
2022/06/01 05:48:20;;;;;;;14.43;13.03;;;12.20;99.90;;;;;;4949298;28;20241;-85
2022/06/01 05:51:05;;;;;;;14.73;13.13;;;12.20;99.90;;;;;;4960785;28;20210;-84
2022/06/01 05:53:49;;;;;;;16.10;13.80;;;12.30;99.90;;;;;;4951077;28;20271;-85
2022/06/01 05:56:34;;;;;;;15.37;13.77;;;12.30;99.90;;;;;;4947310;28;20211;-85
2022/06/01 05:59:21;;;;;;;15.00;13.50;;;12.30;99.90;;;;;;4944483;28;20258;-85
2022/06/01 06:02:17;;;;;;;16.03;13.37;;;12.30;99.90;;;;;;4947282;28;20218;-85
2022/06/01 06:05:02;;;;;;;13.97;12.50;;;12.30;99.90;;;;;;4945265;28;20801;-83
2022/06/01 06:07:47;;;;;;;14.73;13.23;;;12.30;99.90;;;;;;4947849;28;20278;-84
2022/06/01 06:10:36;;;;;;;18.03;13.40;;;12.30;99.90;;;;;;4944499;28;20211;-84
2022/06/01 06:13:44;;;;;;;15.93;14.27;;;12.30;99.90;;;;;;4957245;28;20701;-85
2022/06/01 06:16:43;;;;;;;18.80;14.20;;;12.30;99.90;;;;;;4963395;28;20218;-84
2022/06/01 06:19:27;;;;;;;16.13;14.37;;;12.40;99.90;;;;;;4951380;28;20225;-84
2022/06/01 06:22:28;;;;;;;19.50;17.48;;;12.40;99.90;;;;;;4952784;28;20418;-84
2022/06/01 06:25:17;;;;;;;16.53;14.93;;;12.40;99.90;;;;;;4963631;28;20201;-85
2022/06/01 06:28:02;;;;;;;16.27;14.60;;;12.50;99.90;;;;;;4958152;28;20227;-85
2022/06/01 06:30:47;;;;;;;16.07;14.37;;;12.50;99.90;;;;;;4953412;28;20217;-84
2022/06/01 06:33:40;;;;;;;19.57;17.77;;;12.50;99.90;;;;;;4948781;28;20456;-84
2022/06/01 06:36:25;;;;;;;17.43;15.63;;;12.50;99.90;;;;;;4948718;28;20206;-85
2022/06/01 06:39:09;;;;;;;16.93;14.80;;;12.60;99.90;;;;;;4952923;28;20222;-85
2022/06/01 06:41:54;;;;;;;20.23;18.33;;;12.60;99.90;;;;;;4953396;28;20401;-85
2022/06/01 06:44:38;;;;;;;17.20;15.50;;;12.60;99.90;;;;;;4945602;28;20278;-85
2022/06/01 06:47:32;;;;;;;17.13;15.33;;;12.60;99.90;;;;;;4939278;28;20190;-85
2022/06/01 06:50:19;;;;;;;15.93;14.23;;;12.60;99.90;;;;;;4961387;28;20213;-85
2022/06/01 06:53:04;;;;;;;17.77;14.57;;;12.70;99.90;;;;;;4946356;28;20658;-85
2022/06/01 06:55:49;;;;;;;17.03;15.23;;;12.70;99.90;;;;;;4950596;28;20243;-85
2022/06/01 06:58:34;;;;;;;15.97;14.27;;;12.70;99.90;;;;;;4947399;28;20258;-85
2022/06/01 07:01:18;;;;;;;20.17;18.20;;;12.70;99.90;;;;;;4959330;28;20814;-85
2022/06/01 07:04:03;;;;;;;20.38;18.48;;;12.80;99.90;;;;;;4944304;28;20432;-84
2022/06/01 07:06:47;;;;;;;21.27;19.27;;;12.80;99.90;;;;;;4947577;28;20510;-85
2022/06/01 07:09:31;;;;;;;21.00;19.10;;;12.90;99.90;;;;;;4961891;28;20510;-85
2022/06/01 07:12:15;;;;;;;20.45;18.42;;;13.00;99.90;;;;;;4959954;28;20509;-85
2022/06/01 07:14:59;;;;;;;20.33;18.38;;;13.00;99.90;;;;;;4952489;28;20415;-85
2022/06/01 07:17:43;;;;;;;21.17;18.98;;;13.10;99.90;;;;;;4967883;28;20458;-85
2022/06/01 07:20:27;;;;;;;20.27;18.33;;;13.10;99.90;;;;;;4951333;28;20413;-85
2022/06/01 07:23:12;;;;;;;20.25;18.30;;;13.20;99.90;;;;;;4956715;28;20543;-86
2022/06/01 07:25:57;;;;;;;21.35;19.30;;;13.20;99.90;;;;;;4945163;28;20420;-85
2022/06/01 07:28:42;;;;;;;20.10;18.15;;;13.30;99.90;;;;;;4951380;28;20924;-86
2022/06/01 07:31:26;;;;;;;19.92;18.02;;;13.30;99.90;;;;;;4960104;28;20381;-85
2022/06/01 07:34:11;;;;;;;16.80;14.87;;;13.40;99.90;;;;;;4965868;28;20236;-86
2022/06/01 07:43:05;;;;;;;17.60;14.87;;;13.40;99.90;;;;;;4955056;28;20182;-86
2022/06/01 07:43:20;;;;;;;20.05;18.10;;;13.40;99.90;;;;;;4967946;28;20410;-85
2022/06/01 07:46:04;;;;;;;20.80;18.80;;;13.50;99.90;;;;;;4944607;28;20928;-85
2022/06/01 07:48:49;;;;;;;17.67;15.87;;;13.50;99.90;;;;;;4969282;28;20309;-85
2022/06/01 07:51:35;;;;;;;20.03;18.13;;;13.50;99.90;;;;;;4945349;28;20767;-84
2022/06/01 07:54:20;;;;;;;20.30;18.40;;;13.50;99.90;;;;;;4959665;28;20391;-85
2022/06/01 07:57:05;;;;;;;17.03;15.33;;;13.60;99.90;;;;;;4956201;28;20194;-85
2022/06/01 07:59:49;;;;;;;19.83;17.92;;;13.60;99.90;;;;;;4946973;28;20405;-85
2022/06/01 08:02:34;;;;;;;19.20;17.30;;;13.70;99.90;;;;;;4955127;28;20440;-85
2022/06/01 08:05:20;;;;;;;19.67;17.77;;;13.80;99.90;;;;;;4951222;28;20408;-85
2022/06/01 08:08:05;;;;;;;19.17;17.27;;;13.90;99.90;;;;;;4947106;28;20428;-85
2022/06/01 08:10:49;;;;;;;16.07;14.47;;;13.90;99.90;;;;;;4946229;28;20213;-85
2022/06/01 08:13:33;;;;;;;18.42;16.73;;;13.90;99.90;;;;;;4941695;28;20475;-84
2022/06/01 08:16:17;;;;;;;17.70;16.00;;;14.00;99.90;;;;;;4947388;28;20429;-84
2022/06/01 08:19:01;;;;;;;17.17;14.17;;;14.20;99.90;;;;;;4953598;28;20198;-84
2022/06/01 08:21:46;;;;;;;14.93;13.43;;;14.30;99.90;;;;;;4951500;28;20327;-84
2022/06/01 08:24:31;;;;;;;13.40;12.00;;;14.30;99.90;;;;;;4943567;28;20206;-84
2022/06/01 08:27:15;;;;;;;11.87;10.67;;;14.40;99.90;;;;;;4941655;28;20318;-84
2022/06/01 08:29:59;;;;;;;12.83;10.07;;;14.40;99.90;;;;;;4948249;28;20214;-85
2022/06/01 08:32:44;;;;;;;11.30;10.13;;;14.40;99.90;;;;;;4953067;28;20284;-85
2022/06/01 08:35:33;;;;;;;9.63;8.73;;;14.40;99.90;;;;;;4943293;28;20205;-85
2022/06/01 08:38:17;;;;;;;10.03;9.13;;;14.50;99.90;;;;;;4950906;28;20412;-85
2022/06/01 08:41:06;;;;;;;8.90;7.53;;;14.50;99.90;;;;;;4950997;28;20572;-85
2022/06/01 08:44:01;;;;;;;6.80;6.20;;;14.50;99.90;;;;;;4964697;28;20189;-86
2022/06/01 08:46:46;;;;;;;7.93;7.23;;;14.60;99.90;;;;;;4963369;28;20561;-85
2022/06/01 08:49:33;;;;;;;8.30;7.60;;;14.70;99.90;;;;;;4953229;28;20217;-84
2022/06/01 08:52:18;;;;;;;9.23;8.30;;;14.80;99.90;;;;;;4953282;28;20416;-85
2022/06/01 08:55:06;;;;;;;8.53;7.67;;;14.90;99.90;;;;;;4957218;28;20187;-86
2022/06/01 08:58:08;;;;;;;7.90;6.80;;;14.90;99.90;;;;;;4946232;28;20312;-85
2022/06/01 09:01:11;;;;;;;8.30;7.40;;;14.90;99.90;;;;;;4952024;28;20285;-86
2022/06/01 09:04:26;;;;;;;10.13;7.33;;;15.00;99.90;;;;;;4956575;28;20189;-86
2022/06/01 09:07:33;;;;;;;7.33;5.63;;;15.00;99.90;;;;;;4955039;28;20570;-86
2022/06/01 09:10:23;;;;;;;6.37;5.43;;;15.00;99.90;;;;;;4948545;28;20261;-86
2022/06/01 09:13:23;;;;;;;6.13;5.03;;;15.00;99.90;;;;;;4947238;28;20261;-86
2022/06/01 09:16:17;;;;;;;5.10;4.60;;;15.00;99.90;;;;;;4956312;28;20205;-86
2022/06/01 09:19:02;;;;;;;8.13;5.43;;;15.00;99.90;;;;;;4952078;28;20183;-86
2022/06/01 09:25:12;;;;;;;5.30;4.80;;;15.10;99.90;;;;;;4944001;28;20197;-85
2022/06/01 09:28:00;;;;;;;5.57;4.87;;;15.10;99.90;;;;;;4941676;28;20210;-86
2022/06/01 09:31:00;;;;;;;5.20;4.40;;;15.00;99.90;;;;;;4941877;28;20250;-85
2022/06/01 09:33:44;;;;;;;5.20;4.80;;;15.00;99.90;;;;;;4954917;28;21733;-85
2022/06/01 09:36:28;;;;;;;5.53;4.77;;;15.10;99.90;;;;;;4950409;28;20342;-86
2022/06/01 09:39:18;;;;;;;6.57;4.80;;;15.10;99.90;;;;;;4949292;28;20282;-85
2022/06/01 09:42:23;;;;;;;6.07;5.47;;;15.10;99.90;;;;;;4945271;28;20223;-86
2022/06/01 09:45:39;;;;;;;5.67;5.17;;;15.10;99.90;;;;;;4975399;28;20192;-85
2022/06/01 09:48:27;;;;;;;4.67;4.17;;;15.20;99.90;;;;;;4933577;28;20217;-85
2022/06/01 09:51:16;;;;;;;4.50;4.10;;;15.20;99.90;;;;;;4946869;28;20291;-85
2022/06/01 09:54:15;;;;;;;4.60;4.20;;;15.30;99.90;;;;;;4966988;28;20249;-85
2022/06/01 09:57:23;;;;;;;4.97;4.47;;;15.30;99.90;;;;;;4941856;28;20591;-85
2022/06/01 10:06:57;;;;;;;6.20;4.20;;;15.50;99.90;;;;;;4967214;28;20252;-85
2022/06/01 10:09:50;;;;;;;4.07;3.67;;;15.60;99.90;;;;;;4962459;28;20204;-85
2022/06/01 10:12:47;;;;;;;3.30;3.00;;;15.60;99.90;;;;;;4952339;28;20217;-85
2022/06/01 10:15:51;;;;;;;3.30;2.73;;;15.70;99.90;;;;;;4949274;28;20193;-85
2022/06/01 10:18:37;;;;;;;2.80;2.60;;;15.80;99.90;;;;;;4965124;28;20200;-83
2022/06/01 10:21:28;;;;;;;4.00;3.30;;;16.00;99.90;;;;;;4968114;28;20265;-82
2022/06/01 10:24:20;;;;;;;2.90;2.60;;;16.10;99.90;;;;;;4954539;28;20190;-76
2022/06/01 10:27:05;;;;;;;3.13;2.93;;;16.20;99.90;;;;;;4944659;28;20257;-79
2022/06/01 10:30:20;;;;;;;3.33;3.03;;;16.30;99.90;;;;;;4963763;28;20280;-79
2022/06/01 10:33:10;;;;;;;2.83;2.23;;;16.30;99.90;;;;;;4955439;28;20689;-80
2022/06/01 10:36:23;;;;;;;3.90;3.40;;;16.30;99.90;;;;;;4948668;28;20243;-79
2022/06/01 10:39:19;;;;;;;2.83;2.60;;;16.30;99.90;;;;;;4935084;28;20207;-80
2022/06/01 10:42:08;;;;;;;2.60;2.20;;;16.30;99.90;;;;;;4950627;28;20226;-80
2022/06/01 10:45:07;;;;;;;4.00;2.13;;;16.40;99.90;;;;;;4966196;28;20218;-79
2022/06/01 10:48:06;;;;;;;2.60;2.40;;;16.50;99.90;;;;;;4952477;28;20202;-79
2022/06/01 10:50:57;;;;;;;2.67;2.23;;;16.60;99.90;;;;;;4945039;28;20343;-79
2022/06/01 10:54:03;;;;;;;5.53;2.37;;;16.60;99.90;;;;;;4952990;28;20190;-79
2022/06/01 10:56:48;;;;;;;2.90;1.80;;;16.70;99.90;;;;;;4952796;28;20190;-80
2022/06/01 10:59:32;;;;;;;2.23;1.87;;;16.70;99.90;;;;;;4966788;28;20689;-82
2022/06/01 11:02:31;;;;;;;2.20;2.00;;;16.70;99.90;;;;;;4955009;28;20293;-80
2022/06/01 11:05:35;;;;;;;2.00;1.80;;;16.70;99.90;;;;;;4942415;28;20225;-79
2022/06/01 11:08:52;;;;;;;2.60;2.40;;;16.60;99.90;;;;;;4954020;28;20206;-79
2022/06/01 11:11:54;;;;;;;2.87;2.13;;;16.60;99.90;;;;;;4940559;28;20253;-79
2022/06/01 11:15:01;;;;;;;3.63;3.00;;;16.70;99.90;;;;;;4957863;28;20248;-82
2022/06/01 11:17:52;;;;;;;2.50;2.30;;;16.70;99.90;;;;;;4950027;28;20237;-79
2022/06/01 11:20:52;;;;;;;3.20;2.40;;;16.80;99.90;;;;;;4948847;28;20205;-79
2022/06/01 11:23:44;;;;;;;4.03;2.50;;;16.90;99.90;;;;;;4953157;28;20206;-80
2022/06/01 11:26:55;;;;;;;2.27;2.10;;;16.90;99.90;;;;;;4944753;28;20198;-80
2022/06/01 11:30:00;;;;;;;1.70;1.60;;;16.90;99.90;;;;;;4960960;28;20214;-79
2022/06/01 11:33:15;;;;;;;1.80;1.50;;;17.10;99.90;;;;;;4945830;28;20213;-79
2022/06/01 11:36:29;;;;;;;1.30;1.20;;;17.10;99.90;;;;;;4947506;28;20202;-80
2022/06/01 11:39:35;;;;;;;3.13;1.60;;;17.20;99.90;;;;;;4946493;28;20202;-80
2022/06/01 11:42:44;;;;;;;1.40;1.30;;;17.30;99.90;;;;;;4939697;28;20269;-80
2022/06/01 11:45:35;;;;;;;1.73;1.47;;;17.20;99.90;;;;;;4946810;28;20197;-79
2022/06/01 11:48:33;;;;;;;2.60;2.10;;;17.20;99.90;;;;;;4949346;28;20229;-80
2022/06/01 11:51:45;;;;;;;3.67;3.27;;;17.10;99.90;;;;;;4960902;28;20225;-80
2022/06/01 11:54:35;;;;;;;4.97;4.57;;;17.10;99.90;;;;;;4949934;28;20230;-79
2022/06/01 11:57:37;;;;;;;8.03;4.33;;;17.10;99.90;;;;;;4945694;28;20210;-80
2022/06/01 12:00:42;;;;;;;4.90;3.60;;;17.10;99.90;;;;;;4951792;28;20714;-80
2022/06/01 12:03:36;;;;;;;3.27;2.97;;;16.90;99.90;;;;;;4951257;28;20190;-81
2022/06/01 12:07:21;;;;;;;4.07;3.40;;;16.90;99.90;;;;;;4959336;28;20185;-80
2022/06/01 12:10:22;;;;;;;5.83;3.60;;;16.80;99.90;;;;;;4914582;29;20260;-80
2022/06/01 12:13:30;;;;;;;4.17;3.70;;;16.80;99.90;;;;;;4911355;29;20272;-80
2022/06/01 12:16:22;;;;;;;2.07;1.87;;;16.80;99.90;;;;;;4950477;28;20202;-80
2022/06/01 12:19:29;;;;;;;1.20;1.10;;;16.80;99.90;;;;;;4948474;28;20255;-79
2022/06/01 12:28:57;;;;;;;1.40;1.30;;;16.60;99.90;;;;;;4947809;28;20291;-80
2022/06/01 12:31:53;;;;;;;2.73;1.20;;;16.70;99.90;;;;;;4961088;28;20229;-80
2022/06/01 12:34:46;;;;;;;1.63;1.10;;;16.70;99.90;;;;;;4945809;28;20209;-78
2022/06/01 12:37:45;;;;;;;1.80;1.00;;;16.80;99.90;;;;;;4958584;28;20198;-84
2022/06/01 12:40:29;;;;;;;0.90;0.90;;;16.80;99.90;;;;;;4964148;28;20199;-84
2022/06/01 12:43:18;;;;;;;1.00;0.97;;;16.80;99.90;;;;;;4964337;28;20250;-84
2022/06/01 12:46:02;;;;;;;1.03;0.80;;;16.80;99.90;;;;;;4942529;28;20222;-84
2022/06/01 12:48:47;;;;;;;1.63;0.70;;;16.70;99.90;;;;;;4956437;28;20302;-84
2022/06/01 12:51:32;;;;;;;3.17;1.10;;;16.80;99.90;;;;;;4947429;28;20215;-84
2022/06/01 12:54:53;;;;;;;0.60;0.60;;;16.80;99.90;;;;;;4949531;28;20230;-85
2022/06/01 12:57:47;;;;;;;1.40;0.90;;;16.90;99.90;;;;;;4937620;28;20221;-84
2022/06/01 13:00:36;;;;;;;1.20;0.90;;;17.00;99.90;;;;;;4949627;28;20237;-84
2022/06/01 13:03:24;;;;;;;1.53;0.67;;;16.90;99.90;;;;;;4946142;28;20194;-84
2022/06/01 13:06:11;;;;;;;1.27;0.60;;;16.90;99.90;;;;;;4965828;28;20215;-84
2022/06/01 13:09:08;;;;;;;1.13;0.50;;;16.90;99.90;;;;;;4953457;28;20226;-84
2022/06/01 13:12:02;;;;;;;1.63;0.50;;;16.90;99.90;;;;;;4954212;28;20218;-83
2022/06/01 13:14:46;;;;;;;0.60;0.60;;;17.00;99.90;;;;;;4945563;28;20211;-84
2022/06/01 13:17:30;;;;;;;1.20;0.60;;;17.00;99.90;;;;;;4961729;28;20193;-83
2022/06/01 13:20:16;;;;;;;1.37;0.50;;;17.10;99.90;;;;;;4947608;28;20213;-84
2022/06/01 13:23:03;;;;;;;0.57;0.50;;;17.20;99.90;;;;;;4950501;28;20206;-84
2022/06/01 13:25:51;;;;;;;0.50;0.50;;;17.20;99.90;;;;;;4952181;28;20206;-84
2022/06/01 13:28:35;;;;;;;2.57;0.70;;;17.40;99.90;;;;;;4957880;28;20214;-84
2022/06/01 13:31:19;;;;;;;0.60;0.60;;;17.40;99.90;;;;;;4956810;28;20218;-84
2022/06/01 13:34:07;;;;;;;0.87;0.70;;;17.40;99.90;;;;;;4952885;28;20206;-84
2022/06/01 13:36:52;;;;;;;2.23;0.93;;;17.50;99.90;;;;;;4951383;28;20242;-84
2022/06/01 13:39:42;;;;;;;0.70;0.70;;;17.50;99.90;;;;;;4951197;28;20613;-84
2022/06/01 13:42:32;;;;;;;1.97;0.80;;;17.60;99.90;;;;;;4960007;28;20239;-84
2022/06/01 13:45:31;;;;;;;2.20;0.90;;;17.60;99.90;;;;;;4958988;28;20257;-84
2022/06/01 13:48:27;;;;;;;0.80;0.80;;;17.60;99.90;;;;;;4952813;28;20201;-84
2022/06/01 13:51:13;;;;;;;1.60;0.87;;;17.70;99.90;;;;;;4956951;28;20286;-84
2022/06/01 13:53:59;;;;;;;1.10;1.00;;;17.70;99.90;;;;;;4945589;28;20223;-84
2022/06/01 13:56:44;;;;;;;1.10;0.83;;;17.70;99.90;;;;;;4950008;28;20246;-84
2022/06/01 13:59:40;;;;;;;2.40;1.00;;;17.80;99.90;;;;;;4967929;28;20232;-84
2022/06/01 14:02:35;;;;;;;1.20;1.10;;;17.80;99.90;;;;;;4942181;28;20229;-84
2022/06/01 14:05:31;;;;;;;0.90;0.90;;;17.80;99.90;;;;;;4945019;28;20198;-84
2022/06/01 14:08:27;;;;;;;1.93;1.50;;;17.90;99.90;;;;;;4941683;28;20211;-84
2022/06/01 14:11:23;;;;;;;1.70;0.93;;;17.90;99.90;;;;;;4944498;28;20278;-85
2022/06/01 14:14:16;;;;;;;0.63;0.60;;;17.90;99.90;;;;;;4947331;28;20577;-84
2022/06/01 14:17:00;;;;;;;1.33;0.40;;;17.80;99.90;;;;;;4949783;28;20609;-84
2022/06/01 14:19:45;;;;;;;0.90;0.50;;;17.80;99.90;;;;;;4940174;28;20226;-84
2022/06/01 14:22:29;;;;;;;0.53;0.53;;;17.80;99.90;;;;;;4964424;28;20298;-84
2022/06/01 14:28:36;;;;;;;0.50;0.50;;;17.80;99.90;;;;;;4944436;28;20194;-84
2022/06/01 14:31:30;;;;;;;0.90;0.73;;;17.80;99.90;;;;;;4946618;28;20257;-84
2022/06/01 14:34:16;;;;;;;0.87;0.60;;;17.80;99.90;;;;;;4944770;28;20225;-84
2022/06/01 14:37:00;;;;;;;1.10;0.80;;;17.80;99.90;;;;;;4965511;28;20191;-84
2022/06/01 14:39:45;;;;;;;2.33;0.90;;;17.80;99.90;;;;;;4952747;28;20206;-84
2022/06/01 14:42:31;;;;;;;0.83;0.83;;;17.80;99.90;;;;;;4953047;28;20221;-84
2022/06/01 14:45:15;;;;;;;0.80;0.80;;;17.80;99.90;;;;;;4949299;28;20245;-83
2022/06/01 14:48:00;;;;;;;1.13;0.70;;;17.80;99.90;;;;;;4959849;28;20673;-84
2022/06/01 14:50:44;;;;;;;1.23;0.70;;;17.90;99.90;;;;;;4952587;28;20226;-84
2022/06/01 14:53:31;;;;;;;2.20;0.80;;;17.90;99.90;;;;;;4950922;28;20708;-84
2022/06/01 14:56:16;;;;;;;2.00;0.80;;;17.80;99.90;;;;;;4950675;28;20278;-84
2022/06/01 14:59:01;;;;;;;1.90;0.90;;;17.70;99.90;;;;;;4961898;28;20186;-82
2022/06/01 15:01:54;;;;;;;0.67;0.60;;;17.50;99.90;;;;;;4950196;28;20249;-82
2022/06/01 15:04:39;;;;;;;2.60;1.10;;;17.50;99.90;;;;;;4960469;28;20217;-83
2022/06/01 15:07:23;;;;;;;0.90;0.90;;;17.50;99.90;;;;;;4956217;28;20254;-82
2022/06/01 15:10:08;;;;;;;2.23;1.10;;;17.50;99.90;;;;;;4962495;28;20238;-83
2022/06/01 15:12:56;;;;;;;0.80;0.80;;;17.50;99.90;;;;;;4961482;28;20217;-83
2022/06/01 15:15:41;;;;;;;0.90;0.73;;;17.50;99.90;;;;;;4955762;28;20230;-83